sensor_id;sensor_type;location;lat;lon;timestamp;temperature;humidity
33508;DHT22;25568;37.410;-122.096;2022-11-15T18:27:06;16.20;63.10
33508;DHT22;25568;37.410;-122.096;2022-11-15T18:29:39;16.20;64.80
33508;DHT22;25568;37.410;-122.096;2022-11-15T18:32:11;16.30;64.90
33508;DHT22;25568;37.410;-122.096;2022-11-15T18:34:43;16.30;64.60
33508;DHT22;25568;37.410;-122.096;2022-11-15T18:37:11;16.20;64.80
33508;DHT22;25568;37.410;-122.096;2022-11-15T18:39:42;16.30;64.20
33508;DHT22;25568;37.410;-122.096;2022-11-15T18:42:11;16.20;63.80
33508;DHT22;25568;37.410;-122.096;2022-11-15T18:44:39;16.20;63.80
33508;DHT22;25568;37.410;-122.096;2022-11-15T18:47:08;16.40;63.60
33508;DHT22;25568;37.410;-122.096;2022-11-15T18:49:37;16.40;61.90
33508;DHT22;25568;37.410;-122.096;2022-11-15T18:52:06;16.40;62.00
33508;DHT22;25568;37.410;-122.096;2022-11-15T18:54:35;16.30;61.10
33508;DHT22;25568;37.410;-122.096;2022-11-15T18:57:08;16.30;61.80
33508;DHT22;25568;37.410;-122.096;2022-11-15T18:59:37;16.40;61.70
33508;DHT22;25568;37.410;-122.096;2022-11-15T19:02:07;16.40;62.20
33508;DHT22;25568;37.410;-122.096;2022-11-15T19:04:37;16.40;62.20
33508;DHT22;25568;37.410;-122.096;2022-11-15T19:07:06;16.40;61.60
33508;DHT22;25568;37.410;-122.096;2022-11-15T19:09:35;16.50;61.50
33508;DHT22;25568;37.410;-122.096;2022-11-15T19:12:04;16.50;60.90
33508;DHT22;25568;37.410;-122.096;2022-11-15T19:14:35;16.50;60.60
33508;DHT22;25568;37.410;-122.096;2022-11-15T19:17:04;16.50;61.00
33508;DHT22;25568;37.410;-122.096;2022-11-15T19:19:32;16.50;59.90
33508;DHT22;25568;37.410;-122.096;2022-11-15T19:22:01;16.50;60.30
33508;DHT22;25568;37.410;-122.096;2022-11-15T19:24:30;16.50;59.00
33508;DHT22;25568;37.410;-122.096;2022-11-15T19:27:00;16.40;56.90
33508;DHT22;25568;37.410;-122.096;2022-11-15T19:29:28;16.40;55.70
33508;DHT22;25568;37.410;-122.096;2022-11-15T19:31:59;16.50;55.00
33508;DHT22;25568;37.410;-122.096;2022-11-15T19:34:29;16.50;54.40
33508;DHT22;25568;37.410;-122.096;2022-11-15T19:36:57;16.40;54.40
33508;DHT22;25568;37.410;-122.096;2022-11-15T19:39:26;16.50;54.40
33508;DHT22;25568;37.410;-122.096;2022-11-15T19:41:55;16.50;53.90
33508;DHT22;25568;37.410;-122.096;2022-11-15T19:44:24;16.50;55.00
33508;DHT22;25568;37.410;-122.096;2022-11-15T19:46:53;16.50;54.50
33508;DHT22;25568;37.410;-122.096;2022-11-15T19:49:23;16.50;54.20
33508;DHT22;25568;37.410;-122.096;2022-11-15T19:51:52;16.50;54.60
33508;DHT22;25568;37.410;-122.096;2022-11-15T19:54:21;16.50;53.80
33508;DHT22;25568;37.410;-122.096;2022-11-15T19:56:50;16.50;54.00
33508;DHT22;25568;37.410;-122.096;2022-11-15T19:59:19;16.50;54.50
33508;DHT22;25568;37.410;-122.096;2022-11-15T20:01:47;16.60;54.20
33508;DHT22;25568;37.410;-122.096;2022-11-15T20:04:16;16.60;54.00
33508;DHT22;25568;37.410;-122.096;2022-11-15T20:06:47;16.60;54.40
33508;DHT22;25568;37.410;-122.096;2022-11-15T20:09:16;16.60;54.80
33508;DHT22;25568;37.410;-122.096;2022-11-15T20:11:46;16.60;54.60
33508;DHT22;25568;37.410;-122.096;2022-11-15T20:14:14;16.60;54.30
33508;DHT22;25568;37.410;-122.096;2022-11-15T20:16:43;16.60;55.10
33508;DHT22;25568;37.410;-122.096;2022-11-15T20:19:12;16.70;55.50
33508;DHT22;25568;37.410;-122.096;2022-11-15T20:21:42;16.70;55.60
33508;DHT22;25568;37.410;-122.096;2022-11-15T20:24:12;16.70;55.50
33508;DHT22;25568;37.410;-122.096;2022-11-15T20:26:44;16.70;55.20
33508;DHT22;25568;37.410;-122.096;2022-11-15T20:29:14;16.80;55.70
33508;DHT22;25568;37.410;-122.096;2022-11-15T20:31:42;16.80;56.30
33508;DHT22;25568;37.410;-122.096;2022-11-15T20:34:11;16.80;56.40
33508;DHT22;25568;37.410;-122.096;2022-11-15T20:36:40;16.80;56.40
33508;DHT22;25568;37.410;-122.096;2022-11-15T20:39:11;16.80;56.70
33508;DHT22;25568;37.410;-122.096;2022-11-15T20:41:40;16.80;56.90
33508;DHT22;25568;37.410;-122.096;2022-11-15T20:44:09;16.90;56.90
33508;DHT22;25568;37.410;-122.096;2022-11-15T20:46:37;16.90;56.50
33508;DHT22;25568;37.410;-122.096;2022-11-15T20:49:06;16.90;56.10
33508;DHT22;25568;37.410;-122.096;2022-11-15T20:51:35;16.90;56.20
33508;DHT22;25568;37.410;-122.096;2022-11-15T20:54:04;16.90;56.40
33508;DHT22;25568;37.410;-122.096;2022-11-15T20:56:36;16.90;56.60
33508;DHT22;25568;37.410;-122.096;2022-11-15T20:59:04;17.00;56.60
33508;DHT22;25568;37.410;-122.096;2022-11-15T21:01:33;17.00;55.70
33508;DHT22;25568;37.410;-122.096;2022-11-15T21:04:02;17.00;55.80
33508;DHT22;25568;37.410;-122.096;2022-11-15T21:06:31;17.10;55.60
33508;DHT22;25568;37.410;-122.096;2022-11-15T21:09:00;17.10;54.90
33508;DHT22;25568;37.410;-122.096;2022-11-15T21:11:47;17.10;55.90
33508;DHT22;25568;37.410;-122.096;2022-11-15T21:14:32;17.10;56.20
33508;DHT22;25568;37.410;-122.096;2022-11-15T21:17:01;17.10;56.00
33508;DHT22;25568;37.410;-122.096;2022-11-15T21:19:30;17.10;55.40
33508;DHT22;25568;37.410;-122.096;2022-11-15T21:21:59;17.10;54.80
33508;DHT22;25568;37.410;-122.096;2022-11-15T21:24:28;17.20;55.90
33508;DHT22;25568;37.410;-122.096;2022-11-15T21:26:59;17.20;55.70
33508;DHT22;25568;37.410;-122.096;2022-11-15T21:29:28;17.20;55.80
33508;DHT22;25568;37.410;-122.096;2022-11-15T21:32:04;17.20;55.70
33508;DHT22;25568;37.410;-122.096;2022-11-15T21:34:33;17.30;55.90
33508;DHT22;25568;37.410;-122.096;2022-11-15T21:37:01;17.30;55.90
33508;DHT22;25568;37.410;-122.096;2022-11-15T21:39:30;17.30;56.00
33508;DHT22;25568;37.410;-122.096;2022-11-15T21:42:00;17.40;55.30
33508;DHT22;25568;37.410;-122.096;2022-11-15T21:44:29;17.40;55.50
33508;DHT22;25568;37.410;-122.096;2022-11-15T21:46:58;17.30;55.50
33508;DHT22;25568;37.410;-122.096;2022-11-15T21:49:30;17.40;55.50
33508;DHT22;25568;37.410;-122.096;2022-11-15T21:51:59;17.40;55.70
33508;DHT22;25568;37.410;-122.096;2022-11-15T21:54:28;17.40;55.40
33508;DHT22;25568;37.410;-122.096;2022-11-15T21:56:57;17.40;55.40
33508;DHT22;25568;37.410;-122.096;2022-11-15T21:59:27;17.50;55.40
33508;DHT22;25568;37.410;-122.096;2022-11-15T22:01:56;17.50;55.00
33508;DHT22;25568;37.410;-122.096;2022-11-15T22:04:41;17.50;55.30
33508;DHT22;25568;37.410;-122.096;2022-11-15T22:07:10;17.60;55.30
33508;DHT22;25568;37.410;-122.096;2022-11-15T22:09:40;17.60;55.00
33508;DHT22;25568;37.410;-122.096;2022-11-15T22:12:09;17.60;54.40
33508;DHT22;25568;37.410;-122.096;2022-11-15T22:14:39;17.60;54.80
33508;DHT22;25568;37.410;-122.096;2022-11-15T22:17:08;17.60;55.40
33508;DHT22;25568;37.410;-122.096;2022-11-15T22:19:37;17.60;55.20
33508;DHT22;25568;37.410;-122.096;2022-11-15T22:22:05;17.70;55.00
33508;DHT22;25568;37.410;-122.096;2022-11-15T22:24:34;17.70;55.30
33508;DHT22;25568;37.410;-122.096;2022-11-15T22:27:04;17.70;54.90
33508;DHT22;25568;37.410;-122.096;2022-11-15T22:29:36;17.70;55.00
33508;DHT22;25568;37.410;-122.096;2022-11-15T22:32:06;17.80;54.90
33508;DHT22;25568;37.410;-122.096;2022-11-15T22:34:35;17.80;54.90
33508;DHT22;25568;37.410;-122.096;2022-11-15T22:37:04;17.80;54.30
33508;DHT22;25568;37.410;-122.096;2022-11-15T22:39:32;17.80;54.70
33508;DHT22;25568;37.410;-122.096;2022-11-15T22:42:01;17.80;54.50
33508;DHT22;25568;37.410;-122.096;2022-11-15T22:44:30;17.80;54.30
33508;DHT22;25568;37.410;-122.096;2022-11-15T22:46:59;17.90;53.80
33508;DHT22;25568;37.410;-122.096;2022-11-15T22:49:29;17.90;54.00
33508;DHT22;25568;37.410;-122.096;2022-11-15T22:51:58;17.90;54.00
33508;DHT22;25568;37.410;-122.096;2022-11-15T22:54:27;17.90;54.60
33508;DHT22;25568;37.410;-122.096;2022-11-15T22:56:56;17.90;54.60
33508;DHT22;25568;37.410;-122.096;2022-11-15T22:59:24;18.00;54.80
33508;DHT22;25568;37.410;-122.096;2022-11-15T23:01:53;18.00;54.50
33508;DHT22;25568;37.410;-122.096;2022-11-15T23:04:25;18.00;54.80
33508;DHT22;25568;37.410;-122.096;2022-11-15T23:06:55;18.00;54.40
33508;DHT22;25568;37.410;-122.096;2022-11-15T23:09:24;18.10;54.70
33508;DHT22;25568;37.410;-122.096;2022-11-15T23:11:53;18.10;54.20
33508;DHT22;25568;37.410;-122.096;2022-11-15T23:14:39;18.10;54.40
33508;DHT22;25568;37.410;-122.096;2022-11-15T23:17:08;18.10;54.20
33508;DHT22;25568;37.410;-122.096;2022-11-15T23:19:37;18.10;54.10
33508;DHT22;25568;37.410;-122.096;2022-11-15T23:22:11;18.10;53.40
33508;DHT22;25568;37.410;-122.096;2022-11-15T23:24:56;18.10;53.30
33508;DHT22;25568;37.410;-122.096;2022-11-15T23:27:25;18.20;53.20
33508;DHT22;25568;37.410;-122.096;2022-11-15T23:29:54;18.20;53.80
33508;DHT22;25568;37.410;-122.096;2022-11-15T23:32:39;18.20;53.90
33508;DHT22;25568;37.410;-122.096;2022-11-15T23:35:25;18.20;54.00
33508;DHT22;25568;37.410;-122.096;2022-11-15T23:37:58;18.20;53.30
33508;DHT22;25568;37.410;-122.096;2022-11-15T23:40:27;18.20;53.40
33508;DHT22;25568;37.410;-122.096;2022-11-15T23:42:57;18.30;53.90
33508;DHT22;25568;37.410;-122.096;2022-11-15T23:45:29;18.30;53.90
33508;DHT22;25568;37.410;-122.096;2022-11-15T23:47:58;18.30;53.60
33508;DHT22;25568;37.410;-122.096;2022-11-15T23:50:27;18.30;53.80
33508;DHT22;25568;37.410;-122.096;2022-11-15T23:53:02;18.30;53.70
33508;DHT22;25568;37.410;-122.096;2022-11-15T23:55:31;18.30;54.10
33508;DHT22;25568;37.410;-122.096;2022-11-15T23:58:00;18.40;54.10
